sensor_id;sensor_type;location;lat;lon;timestamp;P1;durP1;ratioP1;P2;durP2;ratioP2
7460;SDS011;6757;52.258;12.840;2022-12-07T00:01:41;1.05;;;0.70;;
7460;SDS011;6757;52.258;12.840;2022-12-07T00:04:11;3.92;;;1.83;;
7460;SDS011;6757;52.258;12.840;2022-12-07T00:06:40;2.65;;;1.45;;
7460;SDS011;6757;52.258;12.840;2022-12-07T00:09:11;2.50;;;0.85;;
7460;SDS011;6757;52.258;12.840;2022-12-07T00:11:40;1.23;;;0.90;;
7460;SDS011;6757;52.258;12.840;2022-12-07T00:14:09;3.47;;;1.40;;
7460;SDS011;6757;52.258;12.840;2022-12-07T00:16:39;1.88;;;0.77;;
7460;SDS011;6757;52.258;12.840;2022-12-07T00:19:07;2.47;;;1.23;;
7460;SDS011;6757;52.258;12.840;2022-12-07T00:21:37;1.20;;;1.00;;
7460;SDS011;6757;52.258;12.840;2022-12-07T00:24:05;1.05;;;0.68;;
7460;SDS011;6757;52.258;12.840;2022-12-07T00:26:34;1.08;;;0.82;;
7460;SDS011;6757;52.258;12.840;2022-12-07T00:29:04;1.83;;;1.17;;
7460;SDS011;6757;52.258;12.840;2022-12-07T00:31:34;3.53;;;1.40;;
7460;SDS011;6757;52.258;12.840;2022-12-07T00:34:04;0.30;;;0.30;;
7460;SDS011;6757;52.258;12.840;2022-12-07T00:36:32;0.75;;;0.47;;
7460;SDS011;6757;52.258;12.840;2022-12-07T00:38:59;0.43;;;0.40;;
7460;SDS011;6757;52.258;12.840;2022-12-07T00:41:27;0.52;;;0.38;;
7460;SDS011;6757;52.258;12.840;2022-12-07T00:43:56;1.35;;;0.70;;
7460;SDS011;6757;52.258;12.840;2022-12-07T00:46:24;0.95;;;0.75;;
7460;SDS011;6757;52.258;12.840;2022-12-07T00:48:51;2.13;;;0.90;;
7460;SDS011;6757;52.258;12.840;2022-12-07T00:51:20;1.25;;;0.82;;
7460;SDS011;6757;52.258;12.840;2022-12-07T00:53:49;0.85;;;0.40;;
7460;SDS011;6757;52.258;12.840;2022-12-07T00:56:17;0.82;;;0.75;;
7460;SDS011;6757;52.258;12.840;2022-12-07T00:58:49;1.05;;;0.93;;
7460;SDS011;6757;52.258;12.840;2022-12-07T01:01:19;2.17;;;1.33;;
7460;SDS011;6757;52.258;12.840;2022-12-07T01:03:46;1.45;;;0.30;;
7460;SDS011;6757;52.258;12.840;2022-12-07T01:06:13;0.25;;;0.20;;
7460;SDS011;6757;52.258;12.840;2022-12-07T01:08:42;1.63;;;1.02;;
7460;SDS011;6757;52.258;12.840;2022-12-07T01:11:11;0.80;;;0.63;;
7460;SDS011;6757;52.258;12.840;2022-12-07T01:13:40;0.25;;;0.25;;
7460;SDS011;6757;52.258;12.840;2022-12-07T01:16:08;6.78;;;2.38;;
7460;SDS011;6757;52.258;12.840;2022-12-07T01:18:39;0.25;;;0.22;;
7460;SDS011;6757;52.258;12.840;2022-12-07T01:21:07;1.25;;;0.73;;
7460;SDS011;6757;52.258;12.840;2022-12-07T01:23:37;0.17;;;0.17;;
7460;SDS011;6757;52.258;12.840;2022-12-07T01:26:05;1.77;;;0.73;;
7460;SDS011;6757;52.258;12.840;2022-12-07T01:28:35;1.55;;;0.90;;
7460;SDS011;6757;52.258;12.840;2022-12-07T01:31:03;0.65;;;0.65;;
7460;SDS011;6757;52.258;12.840;2022-12-07T01:33:32;0.40;;;0.40;;
7460;SDS011;6757;52.258;12.840;2022-12-07T01:36:03;1.02;;;1.02;;
7460;SDS011;6757;52.258;12.840;2022-12-07T01:38:32;1.50;;;0.93;;
7460;SDS011;6757;52.258;12.840;2022-12-07T01:41:00;1.55;;;0.47;;
7460;SDS011;6757;52.258;12.840;2022-12-07T01:43:29;0.90;;;0.88;;
7460;SDS011;6757;52.258;12.840;2022-12-07T01:45:58;1.00;;;0.95;;
7460;SDS011;6757;52.258;12.840;2022-12-07T01:48:26;0.88;;;0.82;;
7460;SDS011;6757;52.258;12.840;2022-12-07T01:50:59;1.88;;;0.38;;
7460;SDS011;6757;52.258;12.840;2022-12-07T01:53:32;1.00;;;0.75;;
7460;SDS011;6757;52.258;12.840;2022-12-07T01:56:03;1.55;;;1.13;;
7460;SDS011;6757;52.258;12.840;2022-12-07T01:58:31;0.38;;;0.30;;
7460;SDS011;6757;52.258;12.840;2022-12-07T02:00:59;0.75;;;0.60;;
7460;SDS011;6757;52.258;12.840;2022-12-07T02:03:27;1.42;;;1.33;;
7460;SDS011;6757;52.258;12.840;2022-12-07T02:06:00;0.15;;;0.15;;
7460;SDS011;6757;52.258;12.840;2022-12-07T02:08:28;2.05;;;1.55;;
7460;SDS011;6757;52.258;12.840;2022-12-07T02:10:55;0.40;;;0.40;;
7460;SDS011;6757;52.258;12.840;2022-12-07T02:13:23;1.00;;;0.28;;
7460;SDS011;6757;52.258;12.840;2022-12-07T02:15:58;1.17;;;1.00;;
7460;SDS011;6757;52.258;12.840;2022-12-07T02:18:45;0.32;;;0.32;;
7460;SDS011;6757;52.258;12.840;2022-12-07T02:21:28;1.17;;;0.80;;
7460;SDS011;6757;52.258;12.840;2022-12-07T02:24:15;0.35;;;0.35;;
7460;SDS011;6757;52.258;12.840;2022-12-07T02:30:06;0.65;;;0.65;;
7460;SDS011;6757;52.258;12.840;2022-12-07T02:32:40;1.40;;;0.88;;
7460;SDS011;6757;52.258;12.840;2022-12-07T02:35:16;1.63;;;1.25;;
7460;SDS011;6757;52.258;12.840;2022-12-07T02:37:48;0.88;;;0.35;;
7460;SDS011;6757;52.258;12.840;2022-12-07T02:40:25;0.77;;;0.77;;
7460;SDS011;6757;52.258;12.840;2022-12-07T02:42:58;10.43;;;1.17;;
7460;SDS011;6757;52.258;12.840;2022-12-07T02:45:32;0.00;;;0.00;;
7460;SDS011;6757;52.258;12.840;2022-12-07T02:48:03;0.75;;;0.60;;
7460;SDS011;6757;52.258;12.840;2022-12-07T02:50:32;1.95;;;1.25;;
7460;SDS011;6757;52.258;12.840;2022-12-07T02:52:58;3.17;;;2.40;;
7460;SDS011;6757;52.258;12.840;2022-12-07T02:55:26;1.10;;;0.90;;
7460;SDS011;6757;52.258;12.840;2022-12-07T02:58:06;1.50;;;0.70;;
7460;SDS011;6757;52.258;12.840;2022-12-07T03:00:54;1.33;;;1.23;;
7460;SDS011;6757;52.258;12.840;2022-12-07T03:03:37;0.73;;;0.73;;
7460;SDS011;6757;52.258;12.840;2022-12-07T03:06:12;2.22;;;1.10;;
7460;SDS011;6757;52.258;12.840;2022-12-07T03:08:48;3.50;;;1.60;;
7460;SDS011;6757;52.258;12.840;2022-12-07T03:11:24;0.52;;;0.52;;
7460;SDS011;6757;52.258;12.840;2022-12-07T03:14:00;2.85;;;0.57;;
7460;SDS011;6757;52.258;12.840;2022-12-07T03:16:37;2.33;;;1.15;;
7460;SDS011;6757;52.258;12.840;2022-12-07T03:19:11;3.13;;;1.23;;
7460;SDS011;6757;52.258;12.840;2022-12-07T03:24:14;1.48;;;1.17;;
7460;SDS011;6757;52.258;12.840;2022-12-07T03:26:44;3.20;;;2.30;;
7460;SDS011;6757;52.258;12.840;2022-12-07T03:29:17;0.20;;;0.20;;
7460;SDS011;6757;52.258;12.840;2022-12-07T03:31:51;1.45;;;0.95;;
7460;SDS011;6757;52.258;12.840;2022-12-07T03:34:26;1.42;;;1.33;;
7460;SDS011;6757;52.258;12.840;2022-12-07T03:37:00;2.25;;;1.38;;
7460;SDS011;6757;52.258;12.840;2022-12-07T03:39:33;1.85;;;1.70;;
7460;SDS011;6757;52.258;12.840;2022-12-07T03:42:05;1.00;;;1.00;;
7460;SDS011;6757;52.258;12.840;2022-12-07T03:44:35;1.45;;;1.10;;
7460;SDS011;6757;52.258;12.840;2022-12-07T03:47:05;8.43;;;2.72;;
7460;SDS011;6757;52.258;12.840;2022-12-07T03:49:39;11.55;;;2.00;;
7460;SDS011;6757;52.258;12.840;2022-12-07T03:52:12;3.25;;;2.25;;
7460;SDS011;6757;52.258;12.840;2022-12-07T03:54:48;6.53;;;3.80;;
7460;SDS011;6757;52.258;12.840;2022-12-07T03:57:21;3.42;;;0.93;;
7460;SDS011;6757;52.258;12.840;2022-12-07T03:59:49;5.75;;;2.72;;
7460;SDS011;6757;52.258;12.840;2022-12-07T04:02:18;6.20;;;3.22;;
7460;SDS011;6757;52.258;12.840;2022-12-07T04:04:46;6.15;;;1.70;;
7460;SDS011;6757;52.258;12.840;2022-12-07T04:07:13;4.07;;;1.50;;
7460;SDS011;6757;52.258;12.840;2022-12-07T04:09:40;7.10;;;2.65;;
7460;SDS011;6757;52.258;12.840;2022-12-07T04:12:07;3.40;;;1.88;;
7460;SDS011;6757;52.258;12.840;2022-12-07T04:14:34;14.30;;;4.68;;
7460;SDS011;6757;52.258;12.840;2022-12-07T04:17:01;5.57;;;2.47;;
7460;SDS011;6757;52.258;12.840;2022-12-07T04:19:30;4.35;;;1.90;;
7460;SDS011;6757;52.258;12.840;2022-12-07T04:21:59;2.13;;;1.50;;
7460;SDS011;6757;52.258;12.840;2022-12-07T04:24:28;3.70;;;2.47;;
7460;SDS011;6757;52.258;12.840;2022-12-07T04:26:55;2.92;;;1.85;;
7460;SDS011;6757;52.258;12.840;2022-12-07T04:29:22;3.60;;;1.77;;
7460;SDS011;6757;52.258;12.840;2022-12-07T04:31:49;1.48;;;1.38;;
7460;SDS011;6757;52.258;12.840;2022-12-07T04:34:17;1.30;;;1.02;;
7460;SDS011;6757;52.258;12.840;2022-12-07T04:36:47;1.45;;;1.05;;
7460;SDS011;6757;52.258;12.840;2022-12-07T04:39:18;5.65;;;2.05;;
7460;SDS011;6757;52.258;12.840;2022-12-07T04:41:47;7.82;;;3.15;;
7460;SDS011;6757;52.258;12.840;2022-12-07T04:44:14;2.28;;;2.03;;
7460;SDS011;6757;52.258;12.840;2022-12-07T04:46:42;3.65;;;2.67;;
7460;SDS011;6757;52.258;12.840;2022-12-07T04:49:10;7.38;;;2.80;;
7460;SDS011;6757;52.258;12.840;2022-12-07T04:51:38;4.07;;;1.55;;
7460;SDS011;6757;52.258;12.840;2022-12-07T04:54:07;3.65;;;3.35;;
7460;SDS011;6757;52.258;12.840;2022-12-07T04:56:34;5.55;;;3.25;;
7460;SDS011;6757;52.258;12.840;2022-12-07T04:59:02;0.82;;;0.82;;
7460;SDS011;6757;52.258;12.840;2022-12-07T05:01:30;2.72;;;2.42;;
7460;SDS011;6757;52.258;12.840;2022-12-07T05:03:58;3.25;;;2.35;;
7460;SDS011;6757;52.258;12.840;2022-12-07T05:06:26;5.38;;;2.20;;
7460;SDS011;6757;52.258;12.840;2022-12-07T05:08:53;5.32;;;3.20;;
7460;SDS011;6757;52.258;12.840;2022-12-07T05:11:23;5.35;;;2.80;;
7460;SDS011;6757;52.258;12.840;2022-12-07T05:14:06;11.50;;;3.13;;
7460;SDS011;6757;52.258;12.840;2022-12-07T05:16:37;4.57;;;3.40;;
7460;SDS011;6757;52.258;12.840;2022-12-07T05:19:05;5.68;;;2.22;;
7460;SDS011;6757;52.258;12.840;2022-12-07T05:21:32;2.45;;;1.80;;
7460;SDS011;6757;52.258;12.840;2022-12-07T05:23:59;3.72;;;2.85;;
7460;SDS011;6757;52.258;12.840;2022-12-07T05:26:27;4.57;;;2.47;;
7460;SDS011;6757;52.258;12.840;2022-12-07T05:28:55;6.45;;;2.38;;
7460;SDS011;6757;52.258;12.840;2022-12-07T05:31:23;6.93;;;2.55;;
7460;SDS011;6757;52.258;12.840;2022-12-07T05:33:52;8.25;;;3.80;;
7460;SDS011;6757;52.258;12.840;2022-12-07T05:36:20;5.82;;;3.30;;
7460;SDS011;6757;52.258;12.840;2022-12-07T05:38:46;3.72;;;2.63;;
7460;SDS011;6757;52.258;12.840;2022-12-07T05:41:14;3.63;;;2.35;;
7460;SDS011;6757;52.258;12.840;2022-12-07T05:44:02;3.42;;;2.70;;
7460;SDS011;6757;52.258;12.840;2022-12-07T05:46:29;1.33;;;1.00;;
7460;SDS011;6757;52.258;12.840;2022-12-07T05:48:56;3.33;;;2.35;;
7460;SDS011;6757;52.258;12.840;2022-12-07T05:51:23;3.25;;;2.28;;
7460;SDS011;6757;52.258;12.840;2022-12-07T05:53:50;4.70;;;2.95;;
7460;SDS011;6757;52.258;12.840;2022-12-07T05:56:17;4.85;;;2.28;;
7460;SDS011;6757;52.258;12.840;2022-12-07T05:58:44;5.45;;;2.25;;
7460;SDS011;6757;52.258;12.840;2022-12-07T06:01:30;7.40;;;2.30;;
7460;SDS011;6757;52.258;12.840;2022-12-07T06:03:57;5.25;;;3.78;;
7460;SDS011;6757;52.258;12.840;2022-12-07T06:06:24;6.05;;;3.75;;
7460;SDS011;6757;52.258;12.840;2022-12-07T06:08:51;8.75;;;3.92;;
7460;SDS011;6757;52.258;12.840;2022-12-07T06:11:18;6.97;;;2.42;;
7460;SDS011;6757;52.258;12.840;2022-12-07T06:14:02;1.98;;;1.65;;
7460;SDS011;6757;52.258;12.840;2022-12-07T06:16:30;2.35;;;1.55;;
7460;SDS011;6757;52.258;12.840;2022-12-07T06:18:57;3.15;;;1.70;;
7460;SDS011;6757;52.258;12.840;2022-12-07T06:21:24;25.67;;;3.60;;
7460;SDS011;6757;52.258;12.840;2022-12-07T06:23:51;5.65;;;2.70;;
7460;SDS011;6757;52.258;12.840;2022-12-07T06:26:18;7.22;;;3.20;;
7460;SDS011;6757;52.258;12.840;2022-12-07T06:28:46;6.25;;;3.50;;
7460;SDS011;6757;52.258;12.840;2022-12-07T06:31:13;7.32;;;4.43;;
7460;SDS011;6757;52.258;12.840;2022-12-07T06:33:41;4.10;;;2.60;;
7460;SDS011;6757;52.258;12.840;2022-12-07T06:36:08;4.80;;;2.85;;
7460;SDS011;6757;52.258;12.840;2022-12-07T06:38:36;7.40;;;3.88;;
7460;SDS011;6757;52.258;12.840;2022-12-07T06:41:03;5.20;;;2.45;;
7460;SDS011;6757;52.258;12.840;2022-12-07T06:43:30;3.05;;;2.63;;
7460;SDS011;6757;52.258;12.840;2022-12-07T06:45:57;4.03;;;1.63;;
7460;SDS011;6757;52.258;12.840;2022-12-07T06:48:24;4.03;;;2.58;;
7460;SDS011;6757;52.258;12.840;2022-12-07T06:50:52;6.47;;;2.47;;
7460;SDS011;6757;52.258;12.840;2022-12-07T06:53:19;5.68;;;4.53;;
7460;SDS011;6757;52.258;12.840;2022-12-07T06:55:46;8.25;;;4.63;;
7460;SDS011;6757;52.258;12.840;2022-12-07T06:58:13;3.58;;;2.85;;
7460;SDS011;6757;52.258;12.840;2022-12-07T07:00:40;11.00;;;5.05;;
7460;SDS011;6757;52.258;12.840;2022-12-07T07:03:07;4.30;;;3.80;;
7460;SDS011;6757;52.258;12.840;2022-12-07T07:05:34;6.43;;;2.83;;
7460;SDS011;6757;52.258;12.840;2022-12-07T07:08:03;3.30;;;2.15;;
7460;SDS011;6757;52.258;12.840;2022-12-07T07:10:30;7.07;;;5.22;;
7460;SDS011;6757;52.258;12.840;2022-12-07T07:12:57;5.22;;;3.05;;
7460;SDS011;6757;52.258;12.840;2022-12-07T07:15:24;10.05;;;3.80;;
7460;SDS011;6757;52.258;12.840;2022-12-07T07:17:51;7.35;;;2.80;;
7460;SDS011;6757;52.258;12.840;2022-12-07T07:20:18;9.40;;;2.67;;
7460;SDS011;6757;52.258;12.840;2022-12-07T07:22:45;11.98;;;4.00;;
7460;SDS011;6757;52.258;12.840;2022-12-07T07:25:13;6.20;;;2.97;;
7460;SDS011;6757;52.258;12.840;2022-12-07T07:27:41;2.75;;;2.22;;
7460;SDS011;6757;52.258;12.840;2022-12-07T07:30:08;9.40;;;2.78;;
7460;SDS011;6757;52.258;12.840;2022-12-07T07:32:36;5.88;;;3.33;;
7460;SDS011;6757;52.258;12.840;2022-12-07T07:35:03;6.28;;;2.80;;
7460;SDS011;6757;52.258;12.840;2022-12-07T07:37:31;7.60;;;3.95;;
7460;SDS011;6757;52.258;12.840;2022-12-07T07:39:58;2.83;;;1.33;;
7460;SDS011;6757;52.258;12.840;2022-12-07T07:42:26;4.82;;;2.70;;
7460;SDS011;6757;52.258;12.840;2022-12-07T07:44:53;5.53;;;3.55;;
7460;SDS011;6757;52.258;12.840;2022-12-07T07:47:20;7.47;;;2.47;;
7460;SDS011;6757;52.258;12.840;2022-12-07T07:49:47;6.18;;;2.85;;
7460;SDS011;6757;52.258;12.840;2022-12-07T07:52:14;6.00;;;2.88;;
7460;SDS011;6757;52.258;12.840;2022-12-07T07:54:40;4.82;;;2.78;;
7460;SDS011;6757;52.258;12.840;2022-12-07T07:57:07;9.55;;;3.67;;
7460;SDS011;6757;52.258;12.840;2022-12-07T07:59:36;13.55;;;2.47;;
7460;SDS011;6757;52.258;12.840;2022-12-07T08:02:03;10.38;;;3.25;;
7460;SDS011;6757;52.258;12.840;2022-12-07T08:04:29;4.63;;;2.53;;
7460;SDS011;6757;52.258;12.840;2022-12-07T08:06:56;2.63;;;2.15;;
7460;SDS011;6757;52.258;12.840;2022-12-07T08:09:23;6.43;;;3.28;;
7460;SDS011;6757;52.258;12.840;2022-12-07T08:11:50;3.60;;;1.58;;
7460;SDS011;6757;52.258;12.840;2022-12-07T08:14:17;3.85;;;2.03;;
7460;SDS011;6757;52.258;12.840;2022-12-07T08:16:45;3.90;;;2.13;;
7460;SDS011;6757;52.258;12.840;2022-12-07T08:19:12;7.03;;;3.42;;
7460;SDS011;6757;52.258;12.840;2022-12-07T08:21:39;0.80;;;0.75;;
7460;SDS011;6757;52.258;12.840;2022-12-07T08:24:06;3.40;;;2.25;;
7460;SDS011;6757;52.258;12.840;2022-12-07T08:26:33;5.18;;;2.55;;
7460;SDS011;6757;52.258;12.840;2022-12-07T08:29:00;2.42;;;1.95;;
7460;SDS011;6757;52.258;12.840;2022-12-07T08:31:27;8.73;;;3.22;;
7460;SDS011;6757;52.258;12.840;2022-12-07T08:33:56;12.02;;;3.15;;
7460;SDS011;6757;52.258;12.840;2022-12-07T08:36:23;2.03;;;1.45;;
7460;SDS011;6757;52.258;12.840;2022-12-07T08:38:50;2.42;;;1.38;;
7460;SDS011;6757;52.258;12.840;2022-12-07T08:41:17;6.72;;;2.72;;
7460;SDS011;6757;52.258;12.840;2022-12-07T08:43:44;4.05;;;2.33;;
7460;SDS011;6757;52.258;12.840;2022-12-07T08:46:13;6.30;;;2.10;;
7460;SDS011;6757;52.258;12.840;2022-12-07T08:48:46;2.30;;;1.95;;
7460;SDS011;6757;52.258;12.840;2022-12-07T08:51:19;2.70;;;1.92;;
7460;SDS011;6757;52.258;12.840;2022-12-07T08:53:47;3.05;;;1.33;;
7460;SDS011;6757;52.258;12.840;2022-12-07T08:56:15;3.35;;;1.27;;
7460;SDS011;6757;52.258;12.840;2022-12-07T08:58:42;2.28;;;1.70;;
7460;SDS011;6757;52.258;12.840;2022-12-07T09:01:09;0.85;;;0.57;;
7460;SDS011;6757;52.258;12.840;2022-12-07T09:03:36;2.13;;;1.35;;
7460;SDS011;6757;52.258;12.840;2022-12-07T09:06:04;1.75;;;1.25;;
7460;SDS011;6757;52.258;12.840;2022-12-07T09:08:33;2.60;;;1.13;;
7460;SDS011;6757;52.258;12.840;2022-12-07T09:11:04;3.45;;;1.92;;
7460;SDS011;6757;52.258;12.840;2022-12-07T09:13:31;4.80;;;1.30;;
7460;SDS011;6757;52.258;12.840;2022-12-07T09:15:58;2.42;;;1.33;;
7460;SDS011;6757;52.258;12.840;2022-12-07T09:18:25;0.65;;;0.30;;
7460;SDS011;6757;52.258;12.840;2022-12-07T09:20:52;1.10;;;0.88;;
7460;SDS011;6757;52.258;12.840;2022-12-07T09:23:19;1.27;;;0.82;;
7460;SDS011;6757;52.258;12.840;2022-12-07T09:25:48;3.35;;;1.90;;
7460;SDS011;6757;52.258;12.840;2022-12-07T09:28:15;0.63;;;0.55;;
7460;SDS011;6757;52.258;12.840;2022-12-07T09:30:45;2.67;;;1.33;;
7460;SDS011;6757;52.258;12.840;2022-12-07T09:33:12;6.80;;;1.08;;
7460;SDS011;6757;52.258;12.840;2022-12-07T09:35:43;0.73;;;0.73;;
7460;SDS011;6757;52.258;12.840;2022-12-07T09:38:11;3.17;;;1.80;;
7460;SDS011;6757;52.258;12.840;2022-12-07T09:40:38;1.35;;;1.20;;
7460;SDS011;6757;52.258;12.840;2022-12-07T09:43:11;4.03;;;1.25;;
7460;SDS011;6757;52.258;12.840;2022-12-07T09:45:40;1.38;;;1.27;;
7460;SDS011;6757;52.258;12.840;2022-12-07T09:48:10;0.60;;;0.45;;
7460;SDS011;6757;52.258;12.840;2022-12-07T09:50:44;0.98;;;0.85;;
7460;SDS011;6757;52.258;12.840;2022-12-07T09:53:13;0.77;;;0.60;;
7460;SDS011;6757;52.258;12.840;2022-12-07T09:55:49;1.48;;;0.63;;
7460;SDS011;6757;52.258;12.840;2022-12-07T09:58:19;0.98;;;0.82;;
7460;SDS011;6757;52.258;12.840;2022-12-07T10:00:49;1.98;;;0.65;;
7460;SDS011;6757;52.258;12.840;2022-12-07T10:03:19;2.53;;;1.73;;
7460;SDS011;6757;52.258;12.840;2022-12-07T10:05:47;5.88;;;0.68;;
7460;SDS011;6757;52.258;12.840;2022-12-07T10:08:17;2.67;;;1.13;;
7460;SDS011;6757;52.258;12.840;2022-12-07T10:10:44;1.50;;;0.98;;
7460;SDS011;6757;52.258;12.840;2022-12-07T10:13:15;3.70;;;2.25;;
7460;SDS011;6757;52.258;12.840;2022-12-07T10:15:50;1.85;;;1.10;;
7460;SDS011;6757;52.258;12.840;2022-12-07T10:18:20;0.80;;;0.80;;
7460;SDS011;6757;52.258;12.840;2022-12-07T10:23:58;1.25;;;1.00;;
7460;SDS011;6757;52.258;12.840;2022-12-07T10:26:29;2.95;;;1.33;;
7460;SDS011;6757;52.258;12.840;2022-12-07T10:29:01;4.75;;;1.92;;
7460;SDS011;6757;52.258;12.840;2022-12-07T10:31:40;0.20;;;0.20;;
7460;SDS011;6757;52.258;12.840;2022-12-07T10:34:14;1.42;;;0.95;;
7460;SDS011;6757;52.258;12.840;2022-12-07T10:36:49;1.30;;;1.20;;
7460;SDS011;6757;52.258;12.840;2022-12-07T10:39:17;2.33;;;0.93;;
7460;SDS011;6757;52.258;12.840;2022-12-07T10:41:53;0.80;;;0.55;;
7460;SDS011;6757;52.258;12.840;2022-12-07T10:44:24;4.43;;;2.05;;
7460;SDS011;6757;52.258;12.840;2022-12-07T10:47:09;0.93;;;0.55;;
7460;SDS011;6757;52.258;12.840;2022-12-07T10:49:51;3.47;;;1.60;;
7460;SDS011;6757;52.258;12.840;2022-12-07T10:52:45;4.28;;;1.42;;
7460;SDS011;6757;52.258;12.840;2022-12-07T10:55:25;1.83;;;1.50;;
7460;SDS011;6757;52.258;12.840;2022-12-07T10:58:07;2.70;;;1.77;;
7460;SDS011;6757;52.258;12.840;2022-12-07T11:00:56;0.65;;;0.65;;
7460;SDS011;6757;52.258;12.840;2022-12-07T11:03:37;1.63;;;0.93;;
7460;SDS011;6757;52.258;12.840;2022-12-07T11:06:16;1.98;;;0.98;;
7460;SDS011;6757;52.258;12.840;2022-12-07T11:08:57;1.67;;;1.50;;
7460;SDS011;6757;52.258;12.840;2022-12-07T11:11:43;0.43;;;0.43;;
7460;SDS011;6757;52.258;12.840;2022-12-07T11:14:21;1.15;;;1.05;;
7460;SDS011;6757;52.258;12.840;2022-12-07T11:16:57;3.03;;;0.93;;
7460;SDS011;6757;52.258;12.840;2022-12-07T11:19:44;2.22;;;0.85;;
7460;SDS011;6757;52.258;12.840;2022-12-07T11:22:27;2.22;;;0.85;;
7460;SDS011;6757;52.258;12.840;2022-12-07T11:25:11;2.80;;;1.55;;
7460;SDS011;6757;52.258;12.840;2022-12-07T11:27:47;2.55;;;0.95;;
7460;SDS011;6757;52.258;12.840;2022-12-07T11:30:28;3.13;;;1.52;;
7460;SDS011;6757;52.258;12.840;2022-12-07T11:33:04;0.80;;;0.80;;
7460;SDS011;6757;52.258;12.840;2022-12-07T11:35:48;3.38;;;1.42;;
7460;SDS011;6757;52.258;12.840;2022-12-07T11:38:28;1.00;;;0.75;;
7460;SDS011;6757;52.258;12.840;2022-12-07T11:41:05;1.05;;;0.95;;
7460;SDS011;6757;52.258;12.840;2022-12-07T11:43:46;9.75;;;0.90;;
7460;SDS011;6757;52.258;12.840;2022-12-07T11:46:23;1.40;;;0.77;;
7460;SDS011;6757;52.258;12.840;2022-12-07T11:48:57;1.48;;;0.95;;
7460;SDS011;6757;52.258;12.840;2022-12-07T11:51:30;1.00;;;0.82;;
7460;SDS011;6757;52.258;12.840;2022-12-07T11:54:02;0.70;;;0.70;;
7460;SDS011;6757;52.258;12.840;2022-12-07T11:56:38;1.20;;;0.98;;
7460;SDS011;6757;52.258;12.840;2022-12-07T11:59:07;0.25;;;0.25;;
7460;SDS011;6757;52.258;12.840;2022-12-07T12:01:42;0.70;;;0.70;;
7460;SDS011;6757;52.258;12.840;2022-12-07T12:04:32;3.90;;;0.95;;
7460;SDS011;6757;52.258;12.840;2022-12-07T12:07:10;3.53;;;0.88;;
7460;SDS011;6757;52.258;12.840;2022-12-07T12:09:45;1.70;;;0.88;;
7460;SDS011;6757;52.258;12.840;2022-12-07T12:12:33;2.15;;;0.80;;
7460;SDS011;6757;52.258;12.840;2022-12-07T12:15:47;1.33;;;0.60;;
7460;SDS011;6757;52.258;12.840;2022-12-07T12:18:35;0.85;;;0.82;;
7460;SDS011;6757;52.258;12.840;2022-12-07T12:21:20;0.32;;;0.32;;
7460;SDS011;6757;52.258;12.840;2022-12-07T12:23:54;3.03;;;1.42;;
7460;SDS011;6757;52.258;12.840;2022-12-07T12:28:54;0.50;;;0.50;;
7460;SDS011;6757;52.258;12.840;2022-12-07T12:31:32;0.50;;;0.50;;
7460;SDS011;6757;52.258;12.840;2022-12-07T12:37:00;0.35;;;0.35;;
7460;SDS011;6757;52.258;12.840;2022-12-07T12:39:27;0.75;;;0.75;;
7460;SDS011;6757;52.258;12.840;2022-12-07T12:41:57;0.35;;;0.30;;
7460;SDS011;6757;52.258;12.840;2022-12-07T12:44:38;1.48;;;0.70;;
7460;SDS011;6757;52.258;12.840;2022-12-07T12:47:51;0.80;;;0.80;;
7460;SDS011;6757;52.258;12.840;2022-12-07T12:50:28;1.08;;;0.73;;
7460;SDS011;6757;52.258;12.840;2022-12-07T12:53:16;0.90;;;0.88;;
7460;SDS011;6757;52.258;12.840;2022-12-07T12:59:22;1.50;;;1.25;;
7460;SDS011;6757;52.258;12.840;2022-12-07T13:01:53;2.95;;;1.65;;
7460;SDS011;6757;52.258;12.840;2022-12-07T13:04:24;2.60;;;1.48;;
7460;SDS011;6757;52.258;12.840;2022-12-07T13:06:56;1.00;;;0.50;;
7460;SDS011;6757;52.258;12.840;2022-12-07T13:09:25;3.85;;;1.85;;
7460;SDS011;6757;52.258;12.840;2022-12-07T13:14:37;0.60;;;0.60;;
7460;SDS011;6757;52.258;12.840;2022-12-07T13:23:25;1.30;;;1.13;;
7460;SDS011;6757;52.258;12.840;2022-12-07T13:26:17;1.60;;;0.93;;
7460;SDS011;6757;52.258;12.840;2022-12-07T13:28:47;0.55;;;0.43;;
7460;SDS011;6757;52.258;12.840;2022-12-07T13:31:19;2.13;;;1.02;;
7460;SDS011;6757;52.258;12.840;2022-12-07T13:33:57;0.45;;;0.45;;
7460;SDS011;6757;52.258;12.840;2022-12-07T13:36:24;3.40;;;0.90;;
7460;SDS011;6757;52.258;12.840;2022-12-07T13:38:54;1.17;;;0.85;;
7460;SDS011;6757;52.258;12.840;2022-12-07T13:41:25;1.00;;;0.77;;
7460;SDS011;6757;52.258;12.840;2022-12-07T13:43:54;2.95;;;1.75;;
7460;SDS011;6757;52.258;12.840;2022-12-07T13:46:31;1.55;;;0.80;;
7460;SDS011;6757;52.258;12.840;2022-12-07T13:49:21;2.20;;;1.50;;
7460;SDS011;6757;52.258;12.840;2022-12-07T13:51:50;1.17;;;0.95;;
7460;SDS011;6757;52.258;12.840;2022-12-07T13:54:17;2.30;;;1.35;;
7460;SDS011;6757;52.258;12.840;2022-12-07T13:56:48;1.17;;;0.60;;
7460;SDS011;6757;52.258;12.840;2022-12-07T13:59:18;0.35;;;0.35;;
7460;SDS011;6757;52.258;12.840;2022-12-07T14:01:48;0.82;;;0.82;;
7460;SDS011;6757;52.258;12.840;2022-12-07T14:04:17;0.60;;;0.60;;
7460;SDS011;6757;52.258;12.840;2022-12-07T14:06:56;1.55;;;0.57;;
7460;SDS011;6757;52.258;12.840;2022-12-07T14:09:24;1.75;;;1.23;;
7460;SDS011;6757;52.258;12.840;2022-12-07T14:11:54;1.90;;;1.33;;
7460;SDS011;6757;52.258;12.840;2022-12-07T14:14:23;0.25;;;0.25;;
7460;SDS011;6757;52.258;12.840;2022-12-07T14:17:00;3.13;;;1.33;;
7460;SDS011;6757;52.258;12.840;2022-12-07T14:19:40;1.75;;;1.33;;
7460;SDS011;6757;52.258;12.840;2022-12-07T14:22:18;3.08;;;1.40;;
7460;SDS011;6757;52.258;12.840;2022-12-07T14:24:49;0.52;;;0.52;;
7460;SDS011;6757;52.258;12.840;2022-12-07T14:27:18;1.38;;;0.88;;
7460;SDS011;6757;52.258;12.840;2022-12-07T14:29:48;0.30;;;0.30;;
7460;SDS011;6757;52.258;12.840;2022-12-07T14:32:18;0.70;;;0.57;;
7460;SDS011;6757;52.258;12.840;2022-12-07T14:34:53;0.70;;;0.70;;
7460;SDS011;6757;52.258;12.840;2022-12-07T14:37:26;2.33;;;0.55;;
7460;SDS011;6757;52.258;12.840;2022-12-07T14:39:55;1.90;;;1.27;;
7460;SDS011;6757;52.258;12.840;2022-12-07T14:42:26;1.30;;;0.75;;
7460;SDS011;6757;52.258;12.840;2022-12-07T14:44:55;1.38;;;1.10;;
7460;SDS011;6757;52.258;12.840;2022-12-07T14:47:23;1.10;;;1.02;;
7460;SDS011;6757;52.258;12.840;2022-12-07T14:49:51;0.47;;;0.47;;
7460;SDS011;6757;52.258;12.840;2022-12-07T14:52:19;2.20;;;1.02;;
7460;SDS011;6757;52.258;12.840;2022-12-07T14:54:49;1.23;;;0.77;;
7460;SDS011;6757;52.258;12.840;2022-12-07T14:57:16;0.82;;;0.55;;
7460;SDS011;6757;52.258;12.840;2022-12-07T14:59:44;0.20;;;0.20;;
7460;SDS011;6757;52.258;12.840;2022-12-07T15:02:12;1.35;;;0.77;;
7460;SDS011;6757;52.258;12.840;2022-12-07T15:04:40;0.73;;;0.52;;
7460;SDS011;6757;52.258;12.840;2022-12-07T15:07:09;1.02;;;1.02;;
7460;SDS011;6757;52.258;12.840;2022-12-07T15:09:42;0.38;;;0.38;;
7460;SDS011;6757;52.258;12.840;2022-12-07T15:12:08;0.80;;;0.80;;
7460;SDS011;6757;52.258;12.840;2022-12-07T15:14:36;1.25;;;0.50;;
7460;SDS011;6757;52.258;12.840;2022-12-07T15:17:04;0.98;;;0.75;;
7460;SDS011;6757;52.258;12.840;2022-12-07T15:19:31;1.02;;;0.80;;
7460;SDS011;6757;52.258;12.840;2022-12-07T15:21:58;1.17;;;0.52;;
7460;SDS011;6757;52.258;12.840;2022-12-07T15:24:25;1.55;;;0.65;;
7460;SDS011;6757;52.258;12.840;2022-12-07T15:26:52;0.30;;;0.30;;
7460;SDS011;6757;52.258;12.840;2022-12-07T15:29:19;2.40;;;0.85;;
7460;SDS011;6757;52.258;12.840;2022-12-07T15:31:47;2.53;;;1.23;;
7460;SDS011;6757;52.258;12.840;2022-12-07T15:34:16;1.08;;;0.75;;
7460;SDS011;6757;52.258;12.840;2022-12-07T15:36:43;1.48;;;0.63;;
7460;SDS011;6757;52.258;12.840;2022-12-07T15:39:10;0.98;;;0.45;;
7460;SDS011;6757;52.258;12.840;2022-12-07T15:41:37;0.90;;;0.90;;
7460;SDS011;6757;52.258;12.840;2022-12-07T15:44:04;2.28;;;0.90;;
7460;SDS011;6757;52.258;12.840;2022-12-07T15:46:51;1.63;;;1.00;;
7460;SDS011;6757;52.258;12.840;2022-12-07T15:49:19;1.05;;;0.77;;
7460;SDS011;6757;52.258;12.840;2022-12-07T15:51:46;1.95;;;1.08;;